createdAt,value
2022-08-22T00:01:55.239Z,17.30
2022-08-22T00:02:58.751Z,17.90
2022-08-22T00:06:14.872Z,17.30
2022-08-22T00:10:34.243Z,17.20
2022-08-22T00:14:59.858Z,17.20
2022-08-22T00:19:28.396Z,17.20
2022-08-22T00:23:53.396Z,17.20
2022-08-22T00:28:18.871Z,17.10
2022-08-22T00:32:42.508Z,17.10
2022-08-22T00:37:16.886Z,17.10
2022-08-22T00:42:02.553Z,17.10
2022-08-22T00:46:12.318Z,17.00
2022-08-22T00:50:37.008Z,17.00
2022-08-22T00:54:59.854Z,17.00
2022-08-22T00:59:23.415Z,17.00
2022-08-22T01:03:52.605Z,17.00
2022-08-22T01:08:38.060Z,17.10
2022-08-22T01:12:55.480Z,17.10
2022-08-22T01:17:28.451Z,17.00
2022-08-22T01:22:13.625Z,17.00
2022-08-22T01:26:41.797Z,16.90
2022-08-22T01:31:25.841Z,16.90
2022-08-22T01:35:44.596Z,16.90
2022-08-22T01:40:09.809Z,16.90
2022-08-22T01:44:49.160Z,16.90
2022-08-22T01:49:20.931Z,16.90
2022-08-22T01:53:36.232Z,16.80
2022-08-22T01:57:54.958Z,16.80
2022-08-22T02:02:20.851Z,16.80
2022-08-22T02:06:49.295Z,16.80
2022-08-22T02:11:05.982Z,16.80
2022-08-22T02:15:45.155Z,16.80
2022-08-22T02:20:07.906Z,16.80
2022-08-22T02:24:19.228Z,16.70
2022-08-22T02:28:25.868Z,16.70
2022-08-22T02:32:41.338Z,16.70
2022-08-22T02:37:02.568Z,16.70
2022-08-22T02:41:25.219Z,16.60
2022-08-22T02:45:41.516Z,16.60
2022-08-22T02:49:50.923Z,16.50
2022-08-22T02:54:01.404Z,16.60
2022-08-22T02:58:27.166Z,16.60
2022-08-22T03:02:59.311Z,16.50
2022-08-22T03:07:25.572Z,16.50
2022-08-22T03:11:38.382Z,16.50
2022-08-22T03:16:12.744Z,16.50
2022-08-22T03:20:59.070Z,16.50
2022-08-22T03:25:14.674Z,16.60
2022-08-22T03:29:27.371Z,16.60
2022-08-22T03:33:34.308Z,16.60
2022-08-22T03:37:42.857Z,16.60
2022-08-22T03:42:02.585Z,16.50
2022-08-22T03:46:21.536Z,16.60
2022-08-22T03:51:07.045Z,16.60
2022-08-22T03:55:28.300Z,16.60
2022-08-22T04:00:00.558Z,16.50
2022-08-22T04:04:10.324Z,16.50
2022-08-22T04:09:03.072Z,16.50
2022-08-22T04:13:35.469Z,16.50
2022-08-22T04:18:07.025Z,16.50
2022-08-22T04:22:53.520Z,16.40
2022-08-22T04:27:23.466Z,16.50
2022-08-22T04:31:36.634Z,16.50
2022-08-22T04:35:45.809Z,16.40
2022-08-22T04:40:01.358Z,16.30
2022-08-22T04:44:36.090Z,16.30
2022-08-22T04:48:54.171Z,16.30
2022-08-22T04:53:25.880Z,16.40
2022-08-22T04:57:45.422Z,16.40
2022-08-22T05:01:59.171Z,16.50
2022-08-22T05:06:08.037Z,16.50
2022-08-22T05:10:39.184Z,16.50
2022-08-22T05:14:54.467Z,16.50
2022-08-22T05:19:27.099Z,16.60
2022-08-22T05:23:48.690Z,16.60
2022-08-22T05:28:15.781Z,16.70
2022-08-22T05:32:31.997Z,16.60
2022-08-22T05:36:43.716Z,16.70
2022-08-22T05:40:57.611Z,16.70
2022-08-22T05:45:12.207Z,16.60
2022-08-22T05:49:37.243Z,16.70
2022-08-22T05:53:49.670Z,16.90
2022-08-22T05:58:17.499Z,16.80
2022-08-22T06:02:36.723Z,16.70
2022-08-22T06:06:54.605Z,16.60
2022-08-22T06:11:15.279Z,16.70
2022-08-22T06:15:44.793Z,16.70
2022-08-22T06:19:55.083Z,16.80
2022-08-22T06:24:05.174Z,16.90
2022-08-22T06:28:17.279Z,16.90
2022-08-22T06:32:59.368Z,17.10
2022-08-22T06:37:02.011Z,17.20
2022-08-22T06:41:09.342Z,17.30
2022-08-22T06:45:22.063Z,17.40
2022-08-22T06:49:32.564Z,17.50
2022-08-22T06:53:53.683Z,17.70
2022-08-22T06:58:07.120Z,17.80
2022-08-22T07:02:36.347Z,18.00
2022-08-22T07:06:50.194Z,18.20
2022-08-22T07:11:26.055Z,18.40
2022-08-22T07:15:37.108Z,18.40
2022-08-22T07:19:56.008Z,18.50
2022-08-22T07:24:03.079Z,18.50
2022-08-22T07:28:36.912Z,18.50
2022-08-22T07:33:21.028Z,18.70
2022-08-22T07:37:57.828Z,18.90
2022-08-22T07:42:18.806Z,19.00
2022-08-22T07:46:31.900Z,19.20
2022-08-22T07:50:48.134Z,19.30
2022-08-22T07:55:02.525Z,19.40
2022-08-22T07:59:14.669Z,19.40
2022-08-22T08:03:23.435Z,19.40
2022-08-22T08:07:32.221Z,19.40
2022-08-22T08:11:41.678Z,19.50
2022-08-22T08:15:50.793Z,19.60
2022-08-22T08:19:58.661Z,19.80
2022-08-22T08:24:08.489Z,20.00
2022-08-22T08:28:34.206Z,20.20
2022-08-22T08:32:43.200Z,20.50
2022-08-22T08:37:09.841Z,20.70
2022-08-22T08:41:57.741Z,20.70
2022-08-22T08:46:34.061Z,20.80
2022-08-22T08:50:59.373Z,21.10
2022-08-22T08:55:32.932Z,21.60
2022-08-22T09:00:05.580Z,21.90
2022-08-22T09:04:33.383Z,22.20
2022-08-22T09:09:12.212Z,22.50
2022-08-22T09:13:29.033Z,22.90
2022-08-22T09:18:13.413Z,23.20
2022-08-22T09:22:33.471Z,23.60
2022-08-22T09:27:21.812Z,24.00
2022-08-22T09:31:48.135Z,24.30
2022-08-22T09:36:05.612Z,24.60
2022-08-22T09:45:19.161Z,24.30
2022-08-22T09:49:47.225Z,24.50
2022-08-22T09:54:16.167Z,24.90
2022-08-22T09:58:46.684Z,25.20
2022-08-22T10:03:33.287Z,25.00
2022-08-22T10:08:05.855Z,24.60
2022-08-22T10:12:19.597Z,24.40
2022-08-22T10:16:53.074Z,24.20
2022-08-22T10:21:15.828Z,24.40
2022-08-22T10:25:48.488Z,24.80
2022-08-22T10:30:16.559Z,25.00
2022-08-22T10:34:30.196Z,25.00
2022-08-22T10:38:47.085Z,25.30
2022-08-22T10:43:09.379Z,25.70
2022-08-22T10:47:21.382Z,25.80
2022-08-22T10:51:47.860Z,25.90
2022-08-22T10:56:04.820Z,26.20
2022-08-22T11:00:35.850Z,26.50
2022-08-22T11:05:03.369Z,26.80
2022-08-22T11:09:25.928Z,26.70
2022-08-22T11:14:19.826Z,26.90
2022-08-22T11:18:33.989Z,27.20
2022-08-22T11:23:12.681Z,27.40
2022-08-22T11:27:40.196Z,27.40
2022-08-22T11:31:53.772Z,26.90
2022-08-22T11:36:30.894Z,26.80
2022-08-22T11:40:46.915Z,26.50
2022-08-22T11:44:59.924Z,26.70
2022-08-22T11:49:16.782Z,26.90
2022-08-22T11:53:43.375Z,26.90
2022-08-22T11:58:02.692Z,27.00
2022-08-22T12:02:35.451Z,27.20
2022-08-22T12:07:10.179Z,27.40
2022-08-22T12:11:47.197Z,27.60
2022-08-22T12:16:14.609Z,28.00
2022-08-22T12:20:46.942Z,27.90
2022-08-22T12:25:34.919Z,27.80
2022-08-22T12:30:05.965Z,27.20
2022-08-22T12:34:24.953Z,27.20
2022-08-22T12:38:50.462Z,27.20
2022-08-22T12:43:23.222Z,27.20
2022-08-22T12:48:08.427Z,27.10
2022-08-22T12:52:25.035Z,27.10
2022-08-22T12:57:00.314Z,27.20
2022-08-22T13:01:08.999Z,27.30
2022-08-22T13:05:21.655Z,27.20
2022-08-22T13:09:38.784Z,27.10
2022-08-22T13:13:56.511Z,27.20
2022-08-22T13:18:29.313Z,27.30
2022-08-22T13:22:41.556Z,27.50
2022-08-22T13:26:59.011Z,27.70
2022-08-22T13:31:07.640Z,28.10
2022-08-22T13:35:54.841Z,28.70
2022-08-22T13:40:07.556Z,28.80
2022-08-22T13:44:21.751Z,28.90
2022-08-22T13:48:49.497Z,28.70
2022-08-22T13:53:08.039Z,28.60
2022-08-22T13:57:35.010Z,28.10
2022-08-22T14:02:15.245Z,28.00
2022-08-22T14:06:38.033Z,28.00
2022-08-22T14:11:02.247Z,28.00
2022-08-22T14:15:21.388Z,27.90
2022-08-22T14:19:52.837Z,27.70
2022-08-22T14:24:36.029Z,27.60
2022-08-22T14:28:56.588Z,27.70
2022-08-22T14:33:24.625Z,27.80
2022-08-22T14:37:38.854Z,27.90
2022-08-22T14:41:57.058Z,27.80
2022-08-22T14:46:10.199Z,27.60
2022-08-22T14:50:53.146Z,27.40
2022-08-22T14:55:08.660Z,27.30
2022-08-22T14:59:43.440Z,27.30
2022-08-22T15:04:19.279Z,27.20
2022-08-22T15:08:57.087Z,27.00
2022-08-22T15:13:08.163Z,26.80
2022-08-22T15:17:37.133Z,26.70
2022-08-22T15:21:45.564Z,26.60
2022-08-22T15:26:03.667Z,26.50
2022-08-22T15:30:18.655Z,26.40
2022-08-22T15:34:41.928Z,26.20
2022-08-22T15:39:16.059Z,26.00
2022-08-22T15:43:33.791Z,25.70
2022-08-22T15:47:49.385Z,25.40
2022-08-22T15:52:02.122Z,25.30
2022-08-22T15:56:11.937Z,25.40
2022-08-22T16:00:28.433Z,25.30
2022-08-22T16:04:49.745Z,25.50
2022-08-22T16:08:56.508Z,25.70
2022-08-22T16:13:27.488Z,26.00
2022-08-22T16:17:44.558Z,26.20
2022-08-22T16:21:52.099Z,26.30
2022-08-22T16:25:58.783Z,26.20
2022-08-22T16:30:11.563Z,26.00
2022-08-22T16:34:18.369Z,25.80
2022-08-22T16:38:36.589Z,25.70
2022-08-22T16:42:46.446Z,25.60
2022-08-22T16:46:55.410Z,25.50
2022-08-22T16:51:15.550Z,25.50
2022-08-22T16:55:31.424Z,25.40
2022-08-22T17:00:05.267Z,25.50
2022-08-22T17:04:29.927Z,25.60
2022-08-22T17:09:13.029Z,25.70
2022-08-22T17:13:26.840Z,25.70
2022-08-22T17:17:40.444Z,25.60
2022-08-22T17:22:12.765Z,25.50
2022-08-22T17:26:49.621Z,25.30
2022-08-22T17:31:04.595Z,25.20
2022-08-22T17:35:25.083Z,25.00
2022-08-22T17:40:02.001Z,24.80
2022-08-22T17:44:17.181Z,24.70
2022-08-22T17:48:48.203Z,24.50
2022-08-22T17:53:06.381Z,24.40
2022-08-22T17:57:34.271Z,24.20
2022-08-22T18:01:58.865Z,24.10
2022-08-22T18:06:09.844Z,24.00
2022-08-22T18:10:24.240Z,24.00
2022-08-22T18:14:52.424Z,24.00
2022-08-22T18:19:12.288Z,23.90
2022-08-22T18:23:36.041Z,23.80
2022-08-22T18:27:51.895Z,23.80
2022-08-22T18:32:34.958Z,23.70
2022-08-22T18:36:53.247Z,23.60
2022-08-22T18:41:26.631Z,23.50
2022-08-22T18:45:48.294Z,23.40
2022-08-22T18:49:56.215Z,23.40
2022-08-22T18:54:06.884Z,23.20
2022-08-22T18:59:06.073Z,23.20
2022-08-22T19:03:46.834Z,23.10
2022-08-22T19:08:08.540Z,23.00
2022-08-22T19:12:35.585Z,22.90
2022-08-22T19:17:06.944Z,22.80
2022-08-22T19:21:38.206Z,22.60
2022-08-22T19:26:26.199Z,22.60
2022-08-22T19:30:46.609Z,22.40
2022-08-22T19:35:21.486Z,22.30
2022-08-22T19:39:40.514Z,22.20
2022-08-22T19:43:47.910Z,22.00
2022-08-22T19:48:14.221Z,21.90
2022-08-22T19:52:51.730Z,21.70
2022-08-22T19:57:13.812Z,21.60
2022-08-22T20:01:58.028Z,21.40
2022-08-22T20:06:43.079Z,21.30
2022-08-22T20:10:58.582Z,21.30
2022-08-22T20:15:26.733Z,21.20
2022-08-22T20:24:30.599Z,21.20
2022-08-22T20:28:47.287Z,21.00
2022-08-22T20:32:59.895Z,20.90
2022-08-22T20:37:29.455Z,20.80
2022-08-22T20:41:46.188Z,20.70
2022-08-22T20:46:05.739Z,20.50
2022-08-22T20:50:13.797Z,20.40
2022-08-22T20:54:24.188Z,20.40
2022-08-22T20:58:37.730Z,20.30
2022-08-22T21:02:53.717Z,20.20
2022-08-22T21:07:01.089Z,20.10
2022-08-22T21:11:27.295Z,20.10
2022-08-22T21:15:40.938Z,19.90
2022-08-22T21:19:48.051Z,19.80
2022-08-22T21:24:07.695Z,19.80
2022-08-22T21:28:35.895Z,19.60
2022-08-22T21:32:47.041Z,19.60
2022-08-22T21:36:59.438Z,19.40
2022-08-22T21:41:06.218Z,19.30
2022-08-22T21:45:30.040Z,19.20
2022-08-22T21:49:36.766Z,19.10
2022-08-22T21:53:43.476Z,19.10
2022-08-22T21:58:32.637Z,19.10
2022-08-22T22:02:43.873Z,19.00
2022-08-22T22:06:50.762Z,18.80
2022-08-22T22:11:01.041Z,18.70
2022-08-22T22:15:10.012Z,18.70
2022-08-22T22:19:16.735Z,18.70
2022-08-22T22:23:24.796Z,18.70
2022-08-22T22:27:32.240Z,18.60
2022-08-22T22:31:39.220Z,18.60
2022-08-22T22:35:46.431Z,18.50
2022-08-22T22:39:54.706Z,18.50
2022-08-22T22:44:02.163Z,18.50
2022-08-22T22:48:09.106Z,18.50
2022-08-22T22:52:15.817Z,18.40
2022-08-22T22:56:23.864Z,18.40
2022-08-22T23:00:33.314Z,18.30
2022-08-22T23:04:43.871Z,18.30
2022-08-22T23:08:51.137Z,18.30
2022-08-22T23:12:58.570Z,18.30
2022-08-22T23:17:05.358Z,18.20
2022-08-22T23:21:17.589Z,18.20
2022-08-22T23:25:24.302Z,18.20
2022-08-22T23:29:31.196Z,18.10
2022-08-22T23:33:37.977Z,18.20
2022-08-22T23:37:44.885Z,18.80
2022-08-22T23:41:52.079Z,18.10
2022-08-22T23:45:58.875Z,18.10
2022-08-22T23:50:06.560Z,18.10
2022-08-22T23:54:13.936Z,18.10
2022-08-22T23:58:21.124Z,18.00
